createdAt,value
2019-02-06T00:01:40.345Z,100.07
2019-02-06T00:05:46.728Z,103.33
2019-02-06T00:09:53.505Z,91.97
2019-02-06T00:14:01.026Z,98.17
2019-02-06T00:18:07.909Z,99.17
2019-02-06T00:22:14.246Z,97.73
2019-02-06T00:26:43.747Z,102.73
2019-02-06T00:30:50.035Z,89.80
2019-02-06T00:34:59.210Z,97.80
2019-02-06T00:39:09.105Z,99.60
2019-02-06T00:47:23.463Z,103.77
2019-02-06T00:51:30.461Z,109.00
2019-02-06T00:55:39.713Z,98.63
2019-02-06T00:59:46.232Z,103.27
2019-02-06T01:03:52.553Z,102.27
2019-02-06T01:08:19.748Z,109.97
2019-02-06T01:12:26.549Z,96.60
2019-02-06T01:16:33.055Z,110.00
2019-02-06T01:21:19.373Z,99.17
2019-02-06T01:25:27.404Z,100.23
2019-02-06T01:29:35.568Z,98.93
2019-02-06T01:33:45.899Z,101.40
2019-02-06T01:37:52.195Z,94.27
2019-02-06T01:42:00.025Z,106.80
2019-02-06T01:46:06.648Z,105.40
2019-02-06T01:50:14.231Z,93.57
2019-02-06T01:54:41.663Z,91.13
2019-02-06T01:58:50.710Z,95.70
2019-02-06T02:07:03.449Z,96.93
2019-02-06T02:11:09.820Z,104.70
2019-02-06T02:15:18.861Z,99.07
2019-02-06T02:19:25.303Z,107.93
2019-02-06T02:23:31.747Z,100.87
2019-02-06T02:27:39.484Z,93.00
2019-02-06T02:31:48.421Z,97.07
2019-02-06T02:35:54.702Z,104.73
2019-02-06T02:40:01.362Z,97.07
2019-02-06T02:44:07.849Z,111.37
2019-02-06T02:52:20.781Z,99.50
2019-02-06T02:56:27.608Z,101.87
2019-02-06T03:04:52.717Z,99.83
2019-02-06T03:08:59.470Z,81.80
2019-02-06T03:13:06.161Z,93.27
2019-02-06T03:17:12.741Z,86.43
2019-02-06T03:21:19.423Z,93.83
2019-02-06T03:25:26.147Z,92.17
2019-02-06T03:29:33.146Z,90.13
2019-02-06T03:33:42.876Z,95.47
2019-02-06T03:37:49.910Z,93.23
2019-02-06T03:41:58.618Z,96.13
2019-02-06T03:46:05.415Z,95.53
2019-02-06T03:50:13.971Z,95.53
2019-02-06T03:54:42.414Z,93.17
2019-02-06T03:58:48.746Z,84.37
2019-02-06T04:02:55.330Z,80.90
2019-02-06T04:07:20.127Z,83.67
2019-02-06T04:11:27.953Z,79.00
2019-02-06T04:15:34.272Z,82.60
2019-02-06T04:20:02.104Z,83.17
2019-02-06T04:24:08.740Z,78.93
2019-02-06T04:28:17.610Z,88.83
2019-02-06T04:32:23.264Z,78.37
2019-02-06T04:36:31.523Z,77.77
2019-02-06T04:40:39.479Z,68.20
2019-02-06T04:44:46.409Z,73.20
2019-02-06T04:48:57.351Z,67.37
2019-02-06T04:53:05.183Z,71.70
2019-02-06T04:57:11.486Z,79.07
2019-02-06T05:01:20.375Z,74.00
2019-02-06T05:05:29.048Z,60.57
2019-02-06T05:13:39.966Z,51.93
2019-02-06T05:17:46.909Z,68.93
2019-02-06T05:21:53.197Z,68.60
2019-02-06T05:26:03.121Z,67.77
2019-02-06T05:30:09.794Z,65.50
2019-02-06T05:34:19.967Z,71.40
2019-02-06T05:38:29.572Z,71.67
2019-02-06T05:42:38.112Z,62.27
2019-02-06T05:46:40.997Z,74.77
2019-02-06T05:50:48.503Z,81.73
2019-02-06T05:54:55.630Z,73.90
2019-02-06T05:59:03.331Z,58.47
2019-02-06T06:03:10.121Z,69.50
2019-02-06T06:07:20.685Z,69.03
2019-02-06T06:11:26.978Z,70.30
2019-02-06T06:15:33.899Z,68.50
2019-02-06T06:19:41.858Z,51.67
2019-02-06T06:23:49.455Z,70.00
2019-02-06T06:27:57.467Z,61.03
2019-02-06T06:32:06.652Z,72.50
2019-02-06T06:36:12.962Z,65.43
2019-02-06T06:40:25.253Z,76.50
2019-02-06T06:44:31.532Z,59.27
2019-02-06T06:48:42.231Z,60.30
2019-02-06T06:52:48.927Z,54.90
2019-02-06T06:56:59.134Z,72.77
2019-02-06T07:01:05.719Z,65.73
2019-02-06T07:05:12.570Z,55.83
2019-02-06T07:09:20.007Z,68.20
2019-02-06T07:13:27.001Z,65.17
2019-02-06T07:17:33.268Z,65.73
2019-02-06T07:21:58.650Z,67.27
2019-02-06T07:26:04.916Z,70.57
2019-02-06T07:30:19.807Z,67.27
2019-02-06T07:34:26.547Z,67.43
2019-02-06T07:38:33.045Z,64.93
2019-02-06T07:42:41.640Z,62.83
2019-02-06T07:46:49.045Z,69.00
2019-02-06T07:50:55.409Z,61.87
2019-02-06T07:55:41.633Z,67.40
2019-02-06T07:59:48.328Z,57.47
2019-02-06T08:03:59.685Z,60.77
2019-02-06T08:08:06.423Z,67.03
2019-02-06T08:12:13.193Z,66.97
2019-02-06T08:17:18.277Z,61.30
2019-02-06T08:21:24.942Z,64.73
2019-02-06T08:25:34.606Z,64.23
2019-02-06T08:30:04.748Z,57.60
2019-02-06T08:34:11.359Z,66.43
2019-02-06T08:38:19.807Z,69.90
2019-02-06T08:42:28.204Z,55.80
2019-02-06T08:46:34.955Z,55.47
2019-02-06T08:50:41.996Z,56.07
2019-02-06T08:54:48.642Z,68.40
2019-02-06T09:03:23.971Z,55.10
2019-02-06T09:07:31.216Z,61.27
2019-02-06T09:11:40.103Z,51.80
2019-02-06T09:15:47.039Z,66.10
2019-02-06T09:19:53.437Z,41.30
2019-02-06T09:24:03.975Z,49.73
2019-02-06T09:28:10.556Z,53.87
2019-02-06T09:32:19.504Z,66.87
2019-02-06T09:36:26.528Z,58.27
2019-02-06T09:40:33.285Z,63.80
2019-02-06T09:45:02.074Z,64.93
2019-02-06T09:49:10.206Z,57.67
2019-02-06T09:57:26.087Z,53.80
2019-02-06T10:01:33.094Z,56.03
2019-02-06T10:05:40.089Z,67.60
2019-02-06T10:09:47.691Z,66.37
2019-02-06T10:13:54.284Z,61.97
2019-02-06T10:18:24.837Z,61.17
2019-02-06T10:22:32.028Z,64.63
2019-02-06T10:26:39.606Z,68.50
2019-02-06T10:30:49.388Z,62.63
2019-02-06T10:34:59.077Z,65.13
2019-02-06T10:39:06.585Z,58.63
2019-02-06T10:43:14.371Z,63.67
2019-02-06T10:47:42.939Z,70.20
2019-02-06T10:51:53.671Z,64.57
2019-02-06T10:56:03.821Z,56.80
2019-02-06T11:00:14.799Z,60.90
2019-02-06T11:04:22.104Z,65.53
2019-02-06T11:08:28.735Z,60.90
2019-02-06T11:12:41.874Z,51.93
2019-02-06T11:16:48.423Z,68.17
2019-02-06T11:20:54.771Z,53.97
2019-02-06T11:25:04.682Z,65.13
2019-02-06T11:29:12.831Z,57.20
2019-02-06T11:33:23.369Z,55.33
2019-02-06T11:37:32.226Z,59.00
2019-02-06T11:41:41.491Z,54.57
2019-02-06T11:45:47.981Z,52.50
2019-02-06T11:49:58.387Z,58.60
2019-02-06T11:54:07.580Z,54.77
2019-02-06T11:58:15.197Z,56.07
2019-02-06T12:02:36.666Z,56.40
2019-02-06T12:06:34.058Z,47.70
2019-02-06T12:10:41.475Z,58.27
2019-02-06T12:14:48.148Z,58.40
2019-02-06T12:18:54.632Z,55.30
2019-02-06T12:23:31.550Z,51.03
2019-02-06T12:27:28.291Z,58.60
2019-02-06T12:31:40.205Z,54.67
2019-02-06T12:35:47.781Z,57.67
2019-02-06T12:39:54.391Z,50.30
2019-02-06T12:44:25.302Z,45.03
2019-02-06T12:48:32.233Z,64.27
2019-02-06T12:52:38.867Z,60.93
2019-02-06T12:56:45.956Z,56.17
2019-02-06T13:00:52.336Z,51.43
2019-02-06T13:05:00.321Z,39.60
2019-02-06T13:09:10.218Z,51.47
2019-02-06T13:13:18.556Z,55.03
2019-02-06T13:17:24.875Z,54.20
2019-02-06T13:21:31.468Z,48.60
2019-02-06T13:25:45.141Z,45.47
2019-02-06T13:29:49.782Z,42.33
2019-02-06T13:33:59.100Z,60.17
2019-02-06T13:38:04.176Z,49.87
2019-02-06T13:42:12.647Z,50.23
2019-02-06T13:46:20.167Z,62.03
2019-02-06T13:50:27.188Z,54.47
2019-02-06T13:54:33.898Z,53.77
2019-02-06T13:58:42.327Z,61.27
2019-02-06T14:02:50.791Z,54.77
2019-02-06T14:06:58.812Z,59.53
2019-02-06T14:11:06.505Z,42.57
2019-02-06T14:19:23.817Z,49.07
2019-02-06T14:23:40.363Z,50.23
2019-02-06T14:28:01.303Z,49.20
2019-02-06T14:32:19.977Z,54.70
2019-02-06T14:36:39.815Z,51.70
2019-02-06T14:41:21.054Z,57.03
2019-02-06T14:46:05.760Z,42.80
2019-02-06T14:50:41.734Z,50.03
2019-02-06T14:59:41.320Z,54.03
2019-02-06T15:03:55.536Z,45.93
2019-02-06T15:08:24.379Z,43.57
2019-02-06T15:12:40.209Z,50.97
2019-02-06T15:17:21.160Z,51.27
2019-02-06T15:22:05.870Z,53.63
2019-02-06T15:26:39.547Z,56.03
2019-02-06T15:31:21.219Z,49.83
2019-02-06T15:35:52.205Z,55.50
2019-02-06T15:45:03.214Z,63.57
2019-02-06T15:49:21.496Z,57.27
2019-02-06T15:53:41.511Z,63.33
2019-02-06T15:57:59.436Z,56.63
2019-02-06T16:02:22.464Z,63.30
2019-02-06T16:11:21.445Z,55.63
2019-02-06T16:15:33.983Z,58.67
2019-02-06T16:20:05.974Z,64.60
2019-02-06T16:24:41.660Z,73.20
2019-02-06T16:29:18.884Z,68.77
2019-02-06T16:33:51.440Z,80.03
2019-02-06T16:38:39.511Z,81.00
2019-02-06T16:43:10.953Z,88.63
2019-02-06T16:47:20.059Z,88.77
2019-02-06T16:51:40.126Z,96.63
2019-02-06T16:56:22.041Z,97.37
2019-02-06T17:01:06.540Z,100.97
2019-02-06T17:05:40.165Z,90.30
2019-02-06T17:10:01.338Z,87.20
2019-02-06T17:14:26.090Z,83.10
2019-02-06T17:19:10.179Z,87.93
2019-02-06T17:23:46.511Z,88.70
2019-02-06T17:28:06.945Z,90.97
2019-02-06T17:32:43.145Z,76.07
2019-02-06T17:37:06.302Z,85.30
2019-02-06T17:41:26.486Z,97.63
2019-02-06T17:45:44.673Z,119.83
2019-02-06T17:50:06.964Z,102.60
2019-02-06T17:54:24.399Z,102.07
2019-02-06T17:58:36.614Z,108.30
2019-02-06T18:06:52.952Z,111.40
2019-02-06T18:11:00.398Z,109.83
2019-02-06T18:15:07.378Z,117.87
2019-02-06T18:19:13.794Z,130.67
2019-02-06T18:23:22.632Z,133.07
2019-02-06T18:27:25.343Z,145.93
2019-02-06T18:31:32.095Z,158.67
2019-02-06T18:35:39.325Z,150.07
2019-02-06T18:39:50.540Z,139.77
2019-02-06T18:43:59.261Z,172.50
2019-02-06T18:48:10.378Z,183.47
2019-02-06T18:52:20.392Z,169.67
2019-02-06T18:56:25.727Z,176.53
2019-02-06T19:00:34.704Z,169.50
2019-02-06T19:04:42.418Z,169.20
2019-02-06T19:08:49.846Z,159.07
2019-02-06T19:12:57.610Z,156.60
2019-02-06T19:17:08.643Z,152.67
2019-02-06T19:21:15.447Z,143.97
2019-02-06T19:25:23.894Z,146.07
2019-02-06T19:29:33.531Z,150.77
2019-02-06T19:33:39.867Z,148.57
2019-02-06T19:41:53.754Z,160.57
2019-02-06T19:46:02.526Z,160.17
2019-02-06T19:50:09.955Z,160.33
2019-02-06T19:54:16.827Z,148.17
2019-02-06T19:58:23.199Z,161.33
2019-02-06T20:02:32.590Z,157.97
2019-02-06T20:06:39.798Z,140.97
2019-02-06T20:10:49.094Z,157.47
2019-02-06T20:14:55.582Z,142.30
2019-02-06T20:19:02.893Z,141.50
2019-02-06T20:23:09.641Z,141.53
2019-02-06T20:27:17.867Z,129.53
2019-02-06T20:31:24.637Z,139.93
2019-02-06T20:35:35.165Z,151.83
2019-02-06T20:39:41.584Z,146.23
2019-02-06T20:43:51.118Z,136.07
2019-02-06T20:47:54.889Z,143.60
2019-02-06T20:52:02.210Z,147.87
2019-02-06T20:56:08.696Z,158.47
2019-02-06T21:00:19.930Z,166.80
2019-02-06T21:04:26.534Z,170.03
2019-02-06T21:08:36.661Z,159.70
2019-02-06T21:12:45.638Z,180.83
2019-02-06T21:16:54.258Z,150.13
2019-02-06T21:21:00.587Z,147.07
2019-02-06T21:25:09.685Z,131.30
2019-02-06T21:29:16.935Z,132.00
2019-02-06T21:33:23.908Z,116.73
2019-02-06T21:37:30.244Z,129.20
2019-02-06T21:41:37.290Z,139.17
2019-02-06T21:45:43.652Z,133.43
2019-02-06T21:49:50.740Z,137.40
2019-02-06T21:53:57.091Z,145.13
2019-02-06T21:58:04.898Z,161.37
2019-02-06T22:02:13.072Z,159.87
2019-02-06T22:06:18.765Z,153.03
2019-02-06T22:10:25.090Z,169.50
2019-02-06T22:14:34.576Z,160.67
2019-02-06T22:18:41.146Z,163.17
2019-02-06T22:22:48.053Z,148.47
2019-02-06T22:26:55.496Z,157.37
2019-02-06T22:31:03.166Z,156.43
2019-02-06T22:35:12.095Z,146.77
2019-02-06T22:39:21.414Z,145.10
2019-02-06T22:43:27.727Z,149.40
2019-02-06T22:47:38.913Z,148.57
2019-02-06T22:51:45.222Z,143.37
2019-02-06T23:00:48.653Z,145.67
2019-02-06T23:04:53.829Z,169.33
2019-02-06T23:09:00.364Z,173.70
2019-02-06T23:13:09.268Z,161.27
2019-02-06T23:17:17.130Z,158.57
2019-02-06T23:21:24.057Z,156.63
2019-02-06T23:25:30.661Z,165.23
2019-02-06T23:29:37.587Z,163.33
2019-02-06T23:33:45.114Z,166.53
2019-02-06T23:37:53.814Z,150.33
2019-02-06T23:42:00.297Z,148.83
2019-02-06T23:46:06.840Z,142.23
2019-02-06T23:50:14.755Z,146.00
2019-02-06T23:54:21.262Z,135.73
2019-02-06T23:58:28.184Z,133.00
